Abre Campo, Brazil
Current Conditions -  °F | °C
As of 5:00 AM on Monday 20 Oct 2014 (Local Time) from SBCF Reporting Station
Clear Clear  
Wind Chill: 72°   Ceiling: Unl
Heat Index: 72°   Visibility: 6mi
Dew Point: 61°   Wind: 15mph
Humidity: 69%   Direction: 160°SSE
Pressure: 30.03"   Gusts: NA
Location:  20.3°S, 42.48°W
Report Text: SBCF 200800Z 16013KT CAVOK 22/16 Q1017
Loading
Personal Weather Stations






























Interactive Weather Map
Tropical Storm Tracking
New forecast layout! Learn more

10-Day Weather Forecast

Advertisements
Track Severe Weather on mobile